Normangee, Texas
Current Conditions -  °F | °C
As of 1:15 AM on Friday 19 Dec 2014 (Local Time) from KCFD Reporting Station
Thunderstorm Thunderstorm  
Wind Chill: 52°   Ceiling: 300
Heat Index: 52°   Visibility: 5mi
Dew Point: 51°   Wind: 6mph
Humidity: 98%   Direction: 30°NNE
Pressure: 30.09"   Gusts: NA
Location:  31.03°N, 96.11°W
Report Text: KCFD 190715Z AUTO 03005KT 5SM TSRA OVC003 11/11 A3009 RMK AO2 LTG DSNT ALQS P0007 T01100107
Loading
Personal Weather Stations






























Interactive Weather Map New forecast layout! Learn more

10-Day Weather Forecast

Advertisements
Track Severe Weather on mobile